»·PEaware :: FDX856 KSEA-KSLC

FDX856 :: KSEA-KSLC

FLIGHT INFORMATION

Flight Status: Arrived
Operator:
Federal Express
More flights by this operator :: More flights under this callsign
Pilot: Randall C. (13846)
Aircraft: Unknown
(B77F)
More flights by this aircraft type
Origin: KSEA Seattle-Tacoma Intl
United States
Destination: KSLC Salt Lake City Intl
United States
More flights between these airports :: More routes between these airports
Route: SUMMA1 SUMMA J54 BKE BYI SKEES5
File this flight plan on PilotEdge
Remarks: PBN / A1B1C1D1L1O1S2 DOF / 181219 REG / N715SB EET / KZLC0026 OPR / FDX PER / D RMK / TCAS SIMBRIEF
Altitude:
(Current/Filed)
35,000ft
Speed:
(Current/Filed)
475kts
Departed: 19-Dec-18 12:32 PM
Arrived: 19-Dec-18 01:57 PM
Distance/Time
Traveled:
596nm/1:25
Distance/Time
To Go:
Arrived

Flight Plot

Page will automatically refresh every two minutes.

Flight plan parsing failed; only flown route is shown


Map Options




Map Legend


Flown Route
Filed Route
Departure Airport
Arrival Airport
Navaid (VOR, NDB)
Fix

Horizontal Profiles

Position Reports

Time Latitude Longitude Heading Altitude Ground
Speed
19-Dec-18 11:50 47.461053 -122.303687 180 446ft 0kts
19-Dec-18 11:51 47.461053 -122.303687 180 446ft 0kts
19-Dec-18 11:52 47.461053 -122.303687 180 446ft 0kts
19-Dec-18 11:53 47.461053 -122.303687 180 446ft 0kts
19-Dec-18 11:54 47.461053 -122.303687 180 446ft 0kts
19-Dec-18 11:55 47.461053 -122.303687 180 446ft 0kts
19-Dec-18 11:56 47.461053 -122.303687 180 446ft 0kts
19-Dec-18 11:57 47.461053 -122.303687 180 446ft 0kts
19-Dec-18 11:58 47.461053 -122.303687 180 446ft 0kts
19-Dec-18 11:59 47.461053 -122.303687 180 446ft 0kts
19-Dec-18 12:00 47.461053 -122.303687 180 446ft 0kts
19-Dec-18 12:01 47.461053 -122.303687 180 446ft 0kts
19-Dec-18 12:02 47.461053 -122.303687 180 446ft 0kts
19-Dec-18 12:03 47.461053 -122.303687 180 446ft 0kts
19-Dec-18 12:04 47.461053 -122.303687 180 446ft 0kts
19-Dec-18 12:05 47.461053 -122.303687 180 446ft 0kts
19-Dec-18 12:06 47.461053 -122.303687 180 446ft 0kts
19-Dec-18 12:07 47.461053 -122.303687 180 446ft 0kts
19-Dec-18 12:08 47.461053 -122.303687 180 446ft 0kts
19-Dec-18 12:09 47.461053 -122.303687 180 446ft 0kts
19-Dec-18 12:10 47.461053 -122.303687 180 446ft 0kts
19-Dec-18 12:11 47.461053 -122.303687 180 446ft 0kts
19-Dec-18 12:12 47.461053 -122.303687 180 446ft 0kts
19-Dec-18 12:13 47.461053 -122.303687 180 446ft 0kts
19-Dec-18 12:14 47.461053 -122.303687 180 446ft 0kts
19-Dec-18 12:15 47.461053 -122.303687 180 446ft 0kts
19-Dec-18 12:16 47.461053 -122.303687 180 446ft 0kts
19-Dec-18 12:17 47.461472 -122.303627 197 446ft 2kts
19-Dec-18 12:18 47.461832 -122.303082 270 446ft 1kts
19-Dec-18 12:19 47.461832 -122.303011 270 446ft 0kts
19-Dec-18 12:20 47.461832 -122.303011 270 446ft 0kts
19-Dec-18 12:21 47.461832 -122.303011 270 446ft 0kts
19-Dec-18 12:22 47.461832 -122.303011 270 446ft 0kts
19-Dec-18 12:23 47.461832 -122.303011 270 446ft 0kts
19-Dec-18 12:24 47.461832 -122.303011 270 446ft 0kts
19-Dec-18 12:25 47.461832 -122.303011 270 446ft 0kts
19-Dec-18 12:26 47.461832 -122.303012 270 446ft 0kts
19-Dec-18 12:27 47.462849 -122.304954 328 446ft 9kts
19-Dec-18 12:28 47.463646 -122.305998 277 446ft 0kts
19-Dec-18 12:29 47.463646 -122.305998 277 446ft 0kts
19-Dec-18 12:30 47.463711 -122.307455 266 446ft 4kts
19-Dec-18 12:31 47.461263 -122.307789 180 446ft 68kts
19-Dec-18 12:32 47.416080 -122.308665 180 2918ft 182kts
19-Dec-18 12:33 47.355793 -122.308842 181 5077ft 250kts
19-Dec-18 12:34 47.285212 -122.309156 182 8661ft 263kts
19-Dec-18 12:35 47.209297 -122.285811 153 11124ft 323kts
19-Dec-18 12:36 47.120942 -122.218928 163 13325ft 381kts
19-Dec-18 12:37 47.017213 -122.168064 170 16470ft 404kts
19-Dec-18 12:38 46.906625 -122.118042 172 19387ft 429kts
19-Dec-18 12:39 46.789789 -122.065055 172 22097ft 450kts
19-Dec-18 12:40 46.667225 -122.009069 167 24547ft 479kts
19-Dec-18 12:41 46.567392 -121.865461 125 26874ft 542kts
19-Dec-18 12:42 46.491465 -121.669929 125 28796ft 567kts
19-Dec-18 12:43 46.410626 -121.468851 126 30793ft 580kts
19-Dec-18 12:44 46.328658 -121.266697 126 32802ft 584kts
19-Dec-18 12:45 46.246615 -121.063014 126 34578ft 587kts
19-Dec-18 12:46 46.163665 -120.859407 127 35360ft 588kts
19-Dec-18 12:47 46.080180 -120.656509 127 35363ft 591kts
19-Dec-18 12:48 45.995859 -120.453093 127 35371ft 592kts
19-Dec-18 12:49 45.911061 -120.250010 127 35372ft 594kts
19-Dec-18 12:51 45.825882 -120.046396 127 35373ft 594kts
19-Dec-18 12:52 45.739925 -119.844438 127 35377ft 594kts
19-Dec-18 12:53 45.653792 -119.643631 127 35377ft 594kts
19-Dec-18 12:54 45.566694 -119.442620 127 35375ft 594kts
19-Dec-18 12:55 45.480357 -119.241959 126 35376ft 594kts
19-Dec-18 12:56 45.393090 -119.041533 127 35374ft 595kts
19-Dec-18 12:57 45.305258 -118.841697 127 35381ft 596kts
19-Dec-18 12:58 45.217204 -118.642771 127 35371ft 597kts
19-Dec-18 12:59 45.128418 -118.443571 127 35376ft 598kts
19-Dec-18 13:00 45.039223 -118.244843 127 35400ft 598kts
19-Dec-18 13:01 44.949931 -118.046311 127 35402ft 597kts
19-Dec-18 13:02 44.859547 -117.848558 126 35409ft 602kts
19-Dec-18 13:03 44.762277 -117.658244 133 35410ft 596kts
19-Dec-18 13:04 44.659994 -117.473603 132 35412ft 598kts
19-Dec-18 13:05 44.559473 -117.287682 131 35419ft 598kts
19-Dec-18 13:05 44.475233 -117.133186 132 35428ft 600kts
19-Dec-18 13:07 44.356377 -116.917114 132 35444ft 602kts
19-Dec-18 13:08 44.253759 -116.731889 132 35449ft 604kts
19-Dec-18 13:09 44.150625 -116.546924 131 35444ft 604kts
19-Dec-18 13:10 44.047055 -116.362356 131 35419ft 606kts
19-Dec-18 13:10 43.960443 -116.208902 131 35434ft 607kts
19-Dec-18 13:12 43.838495 -115.994218 131 35430ft 607kts
19-Dec-18 13:12 43.751103 -115.841336 132 35417ft 607kts
19-Dec-18 13:13 43.646242 -115.658950 131 35404ft 606kts
19-Dec-18 13:15 43.523603 -115.447080 131 35411ft 605kts
19-Dec-18 13:15 43.435853 -115.296410 131 35413ft 606kts
19-Dec-18 13:16 43.330288 -115.116183 131 35413ft 605kts
19-Dec-18 13:17 43.224042 -114.935906 131 35398ft 606kts
19-Dec-18 13:18 43.118030 -114.757125 131 35391ft 605kts
19-Dec-18 13:19 43.011562 -114.578655 131 35398ft 605kts
19-Dec-18 13:20 42.905038 -114.401170 131 35409ft 605kts
19-Dec-18 13:21 42.797908 -114.223737 131 35412ft 605kts
19-Dec-18 13:22 42.692665 -114.049896 131 34978ft 581kts
19-Dec-18 13:23 42.590455 -113.883083 131 33419ft 569kts
19-Dec-18 13:24 42.481410 -113.732275 139 31980ft 552kts
19-Dec-18 13:25 42.373261 -113.588745 138 30560ft 538kts
19-Dec-18 13:26 42.267585 -113.448466 138 29061ft 524kts
19-Dec-18 13:27 42.164505 -113.312660 138 27528ft 511kts
19-Dec-18 13:28 42.063869 -113.180685 137 26009ft 499kts
19-Dec-18 13:29 41.965865 -113.051602 136 24509ft 486kts
19-Dec-18 13:30 41.870435 -112.926456 136 23019ft 473kts
19-Dec-18 13:31 41.777107 -112.805584 135 21514ft 462kts
19-Dec-18 13:32 41.687124 -112.689401 135 19678ft 435kts
19-Dec-18 13:33 41.600624 -112.577932 135 18183ft 428kts
19-Dec-18 13:34 41.514024 -112.471218 143 17080ft 413kts
19-Dec-18 13:35 41.415554 -112.394914 155 15543ft 405kts
19-Dec-18 13:36 41.316998 -112.326351 154 14186ft 394kts
19-Dec-18 13:37 41.221886 -112.259153 153 13009ft 378kts
19-Dec-18 13:38 41.133274 -112.191008 151 12994ft 364kts
19-Dec-18 13:39 41.040756 -112.139337 171 12994ft 358kts
19-Dec-18 13:40 40.945268 -112.119092 174 11437ft 345kts
19-Dec-18 13:41 40.852666 -112.102432 178 11002ft 330kts
19-Dec-18 13:42 40.760808 -112.092863 178 11008ft 331kts
19-Dec-18 13:43 40.669157 -112.082353 178 11008ft 331kts
19-Dec-18 13:44 40.580512 -112.071948 178 11018ft 299kts
19-Dec-18 13:45 40.502431 -112.062818 179 11002ft 265kts
19-Dec-18 13:46 40.429482 -112.054343 179 11011ft 264kts
19-Dec-18 13:47 40.382092 -111.996691 81 10444ft 249kts
19-Dec-18 13:48 40.427755 -111.941978 24 9078ft 227kts
19-Dec-18 13:49 40.489673 -111.939314 352 9004ft 226kts
19-Dec-18 13:50 40.551793 -111.947254 353 8548ft 220kts
19-Dec-18 13:51 40.611636 -111.954191 353 7384ft 212kts
19-Dec-18 13:52 40.666628 -111.960541 353 6339ft 176kts
19-Dec-18 13:53 40.711743 -111.965759 353 5462ft 155kts
19-Dec-18 13:54 40.754620 -111.970721 354 4643ft 153kts
19-Dec-18 13:55 40.790926 -111.974950 355 4240ft 54kts
19-Dec-18 13:56 40.801411 -111.976427 322 4240ft 14kts
19-Dec-18 13:57 40.801663 -111.977635 272 4240ft 0kts
19-Dec-18 13:58 40.803581 -111.978719 353 4240ft 15kts
19-Dec-18 13:59 40.806499 -111.980236 242 4240ft 12kts
19-Dec-18 14:00 40.806013 -111.983481 234 4240ft 2kts
19-Dec-18 14:01 40.805485 -111.983563 177 4240ft 1kts
19-Dec-18 14:02 40.805333 -111.983552 176 4240ft 0kts
19-Dec-18 14:03 40.805333 -111.983552 176 4240ft 0kts
19-Dec-18 14:04 40.805333 -111.983552 176 4240ft 0kts

Navigation Log

Ident Type
Flight plan parsing failed, navigation log unavailable